Terminal Aerodrome Forecast
Issued by NWS

Home | Current Version | Previous Version | Graphics & Text | Print | Product List | Glossary On
Versions: 1 2 3 4 5 6 7 8 9 10 11 12 13 14 15 16 17 18 19
042
FTUS43 KPAH 041608 AAB
TAFCGI
TAF AMD
KCGI 041608Z 0416/0512 12005KT 2SM -RADZ BR OVC009
      TEMPO 0416/0419 1 1/2SM -RA BR OVC006
     FM042100 27005KT 4SM BR OVC015
     FM050000 33004KT P6SM BKN025
     FM050300 35003KT P6SM SCT100 BKN250=

USA.gov is the U.S. government's official web portal to all federal, state and local government web resources and services.